createdAt,value
2018-12-14T00:00:23.404Z,90.06
2018-12-14T00:01:23.454Z,89.58
2018-12-14T00:02:23.562Z,89.58
2018-12-14T00:03:23.562Z,89.30
2018-12-14T00:04:23.615Z,89.39
2018-12-14T00:05:23.722Z,88.35
2018-12-14T00:06:23.722Z,89.01
2018-12-14T00:07:23.774Z,88.64
2018-12-14T00:08:23.826Z,89.20
2018-12-14T00:09:23.879Z,89.68
2018-12-14T00:10:23.933Z,89.30
2018-12-14T00:11:23.987Z,89.30
2018-12-14T00:12:24.039Z,89.68
2018-12-14T00:13:24.091Z,90.25
2018-12-14T00:14:24.145Z,90.06
2018-12-14T00:15:24.199Z,88.92
2018-12-14T00:16:24.251Z,88.26
2018-12-14T00:17:24.304Z,87.88
2018-12-14T00:18:24.358Z,88.17
2018-12-14T00:19:24.411Z,88.35
2018-12-14T00:20:24.463Z,88.54
2018-12-14T00:21:24.517Z,89.11
2018-12-14T00:22:24.570Z,89.77
2018-12-14T00:23:24.623Z,89.49
2018-12-14T00:24:24.677Z,89.68
2018-12-14T00:25:24.728Z,89.77
2018-12-14T00:26:24.782Z,90.34
2018-12-14T00:27:24.837Z,90.34
2018-12-14T00:28:24.890Z,89.49
2018-12-14T00:29:24.945Z,88.73
2018-12-14T00:30:24.998Z,89.39
2018-12-14T00:31:25.049Z,89.11
2018-12-14T00:32:25.102Z,89.20
2018-12-14T00:33:25.155Z,88.82
2018-12-14T00:34:25.208Z,88.82
2018-12-14T00:35:25.265Z,88.92
2018-12-14T00:36:25.316Z,89.30
2018-12-14T00:37:25.367Z,89.68
2018-12-14T00:38:25.422Z,88.92
2018-12-14T00:39:25.475Z,88.92
2018-12-14T00:40:25.529Z,88.54
2018-12-14T00:41:25.580Z,88.07
2018-12-14T00:42:25.635Z,87.88
2018-12-14T00:43:25.689Z,88.07
2018-12-14T00:44:25.742Z,88.17
2018-12-14T00:45:25.855Z,88.07
2018-12-14T00:46:25.850Z,88.17
2018-12-14T00:47:25.902Z,87.98
2018-12-14T00:48:25.958Z,88.17
2018-12-14T00:49:26.008Z,88.17
2018-12-14T00:50:26.060Z,87.78
2018-12-14T00:51:26.115Z,87.88
2018-12-14T00:52:26.168Z,88.07
2018-12-14T00:53:26.222Z,87.12
2018-12-14T00:54:26.274Z,87.12
2018-12-14T00:55:26.327Z,87.31
2018-12-14T00:56:26.380Z,87.02
2018-12-14T00:57:26.433Z,87.02
2018-12-14T00:58:26.487Z,87.02
2018-12-14T00:59:26.541Z,87.59
2018-12-14T01:00:26.595Z,87.50
2018-12-14T01:01:26.647Z,87.59
2018-12-14T01:02:26.700Z,87.69
2018-12-14T01:03:26.754Z,87.59
2018-12-14T01:04:26.806Z,87.69
2018-12-14T01:05:26.859Z,87.69
2018-12-14T01:06:26.912Z,87.69
2018-12-14T01:07:26.966Z,87.88
2018-12-14T01:08:27.019Z,87.69
2018-12-14T01:09:27.076Z,87.59
2018-12-14T01:10:27.125Z,88.07
2018-12-14T01:11:27.179Z,87.50
2018-12-14T01:12:27.232Z,87.78
2018-12-14T01:13:27.284Z,88.07
2018-12-14T01:14:27.338Z,87.78
2018-12-14T01:15:27.391Z,88.17
2018-12-14T01:16:27.445Z,88.45
2018-12-14T01:17:27.499Z,88.35
2018-12-14T01:18:27.550Z,88.26
2018-12-14T01:19:27.603Z,87.98
2018-12-14T01:20:27.658Z,88.26
2018-12-14T01:21:27.711Z,88.26
2018-12-14T01:22:27.765Z,88.64
2018-12-14T01:23:27.818Z,88.07
2018-12-14T01:24:27.870Z,88.45
2018-12-14T01:25:27.924Z,88.17
2018-12-14T01:26:27.977Z,87.98
2018-12-14T01:27:28.031Z,88.07
2018-12-14T01:28:28.083Z,88.54
2018-12-14T01:29:28.137Z,88.92
2018-12-14T01:30:28.190Z,88.73
2018-12-14T01:31:28.244Z,88.82
2018-12-14T01:32:28.299Z,88.54
2018-12-14T01:33:28.350Z,88.73
2018-12-14T01:34:28.404Z,88.45
2018-12-14T01:35:28.458Z,88.64
2018-12-14T01:36:28.512Z,88.73
2018-12-14T01:37:28.564Z,88.82
2018-12-14T01:38:28.617Z,88.73
2018-12-14T01:39:28.672Z,88.35
2018-12-14T01:40:28.725Z,88.07
2018-12-14T01:41:28.777Z,87.88
2018-12-14T01:42:28.830Z,88.07
2018-12-14T01:43:28.883Z,88.17
2018-12-14T01:44:28.938Z,88.07
2018-12-14T01:45:28.990Z,88.26
2018-12-14T01:46:29.046Z,88.82
2018-12-14T01:47:29.098Z,88.64
2018-12-14T01:48:29.150Z,88.92
2018-12-14T01:49:29.203Z,88.54
2018-12-14T01:50:29.257Z,88.35
2018-12-14T01:51:29.311Z,87.98
2018-12-14T01:52:29.365Z,88.35
2018-12-14T01:53:29.416Z,88.45
2018-12-14T01:54:29.473Z,88.73
2018-12-14T01:55:29.524Z,88.73
2018-12-14T01:56:29.576Z,88.64
2018-12-14T01:57:29.630Z,88.82
2018-12-14T01:58:29.688Z,88.82
2018-12-14T01:59:29.739Z,88.82
2018-12-14T02:00:29.790Z,88.92
2018-12-14T02:01:29.843Z,88.07
2018-12-14T02:02:29.895Z,88.07
2018-12-14T02:03:29.949Z,88.17
2018-12-14T02:04:30.002Z,87.98
2018-12-14T02:05:30.054Z,87.59
2018-12-14T02:06:30.109Z,87.50
2018-12-14T02:07:30.160Z,87.69
2018-12-14T02:08:30.216Z,87.12
2018-12-14T02:09:30.268Z,87.40
2018-12-14T02:10:30.321Z,87.21
2018-12-14T02:11:30.375Z,86.93
2018-12-14T02:12:30.428Z,87.21
2018-12-14T02:13:30.479Z,86.83
2018-12-14T02:14:30.532Z,86.46
2018-12-14T02:15:30.586Z,86.83
2018-12-14T02:16:30.639Z,87.40
2018-12-14T02:17:30.692Z,87.02
2018-12-14T02:18:30.746Z,87.69
2018-12-14T02:19:30.798Z,87.98
2018-12-14T02:20:30.852Z,88.35
2018-12-14T02:21:30.904Z,88.45
2018-12-14T02:22:30.958Z,87.78
2018-12-14T02:23:31.010Z,88.07
2018-12-14T02:24:31.065Z,87.21
2018-12-14T02:25:31.116Z,87.21
2018-12-14T02:26:31.171Z,87.40
2018-12-14T02:27:31.223Z,87.02
2018-12-14T02:28:31.277Z,86.65
2018-12-14T02:29:31.328Z,87.31
2018-12-14T02:30:31.383Z,87.02
2018-12-14T02:31:31.436Z,87.02
2018-12-14T02:32:31.487Z,87.40
2018-12-14T02:33:31.539Z,87.12
2018-12-14T02:34:31.600Z,87.12
2018-12-14T02:35:31.650Z,87.02
2018-12-14T02:36:31.700Z,86.27
2018-12-14T02:37:31.753Z,86.27
2018-12-14T02:38:31.807Z,86.27
2018-12-14T02:39:31.860Z,85.70
2018-12-14T02:40:31.913Z,85.70
2018-12-14T02:41:31.968Z,86.46
2018-12-14T02:42:32.018Z,86.55
2018-12-14T02:43:32.115Z,86.18
2018-12-14T02:44:32.125Z,87.40
2018-12-14T02:45:32.178Z,86.93
2018-12-14T02:46:32.230Z,86.93
2018-12-14T02:47:32.282Z,87.02
2018-12-14T02:48:32.335Z,86.65
2018-12-14T02:49:32.390Z,87.12
2018-12-14T02:50:32.442Z,86.65
2018-12-14T02:51:32.495Z,87.12
2018-12-14T02:52:32.548Z,87.69
2018-12-14T02:53:32.600Z,87.59
2018-12-14T02:54:32.653Z,87.12
2018-12-14T02:55:32.715Z,87.59
2018-12-14T02:56:32.763Z,88.07
2018-12-14T02:57:32.812Z,88.07
2018-12-14T02:58:32.867Z,87.31
2018-12-14T02:59:32.919Z,86.46
2018-12-14T03:00:32.982Z,86.18
2018-12-14T03:01:33.025Z,86.93
2018-12-14T03:02:33.080Z,87.31
2018-12-14T03:03:33.156Z,87.21
2018-12-14T03:04:33.186Z,87.31
2018-12-14T03:05:33.238Z,87.21
2018-12-14T03:06:33.290Z,88.07
2018-12-14T03:07:33.346Z,87.78
2018-12-14T03:08:33.401Z,88.54
2018-12-14T03:09:33.451Z,87.78
2018-12-14T03:10:33.570Z,88.17
2018-12-14T03:11:33.557Z,87.69
2018-12-14T03:12:33.613Z,87.31
2018-12-14T03:13:33.662Z,86.93
2018-12-14T03:14:33.714Z,86.74
2018-12-14T03:15:33.768Z,86.74
2018-12-14T03:16:33.822Z,86.83
2018-12-14T03:17:33.876Z,87.02
2018-12-14T03:18:33.927Z,86.46
2018-12-14T03:19:33.984Z,86.65
2018-12-14T03:20:34.035Z,86.36
2018-12-14T03:21:34.087Z,85.89
2018-12-14T03:22:34.139Z,85.99
2018-12-14T03:23:34.193Z,85.70
2018-12-14T03:24:34.248Z,86.46
2018-12-14T03:25:34.302Z,85.89
2018-12-14T03:26:34.354Z,85.51
2018-12-14T03:27:34.406Z,85.89
2018-12-14T03:28:34.461Z,85.89
2018-12-14T03:29:34.511Z,85.89
2018-12-14T03:30:34.655Z,86.55
2018-12-14T03:31:34.620Z,85.99
2018-12-14T03:32:34.674Z,86.46
2018-12-14T03:33:34.724Z,86.74
2018-12-14T03:34:34.778Z,87.78
2018-12-14T03:35:34.830Z,88.54
2018-12-14T03:36:34.883Z,88.64
2018-12-14T03:37:34.937Z,88.73
2018-12-14T03:38:34.988Z,89.30
2018-12-14T03:39:35.043Z,89.39
2018-12-14T03:40:35.097Z,89.11
2018-12-14T03:41:35.148Z,88.54
2018-12-14T03:42:35.204Z,88.92
2018-12-14T03:43:35.261Z,88.73
2018-12-14T03:44:35.307Z,89.01
2018-12-14T03:45:35.414Z,88.82
2018-12-14T03:46:35.435Z,88.82
2018-12-14T03:47:35.468Z,88.73
2018-12-14T03:48:35.521Z,88.54
2018-12-14T03:49:35.574Z,88.82
2018-12-14T03:50:35.626Z,87.78
2018-12-14T03:51:35.681Z,88.07
2018-12-14T03:52:35.733Z,88.17
2018-12-14T03:53:35.785Z,88.26
2018-12-14T03:54:35.838Z,88.26
2018-12-14T03:55:35.892Z,88.35
2018-12-14T03:56:35.946Z,88.07
2018-12-14T03:57:35.997Z,88.17
2018-12-14T03:58:36.052Z,88.17
2018-12-14T03:59:36.104Z,88.07
2018-12-14T04:00:36.157Z,87.59
2018-12-14T04:01:36.211Z,87.69
2018-12-14T04:02:36.269Z,87.88
2018-12-14T04:03:36.316Z,87.98
2018-12-14T04:04:36.369Z,87.59
2018-12-14T04:05:36.424Z,87.50
2018-12-14T04:06:36.475Z,87.12
2018-12-14T04:07:36.529Z,87.31
2018-12-14T04:08:36.582Z,87.21
2018-12-14T04:09:36.634Z,87.12
2018-12-14T04:10:36.686Z,87.12
2018-12-14T04:11:36.741Z,87.12
2018-12-14T04:12:41.514Z,86.83
2018-12-14T04:13:36.845Z,87.21
2018-12-14T04:14:36.900Z,86.65
2018-12-14T04:15:36.958Z,87.02
2018-12-14T04:16:37.007Z,87.50
2018-12-14T04:17:37.059Z,87.21
2018-12-14T04:18:37.112Z,86.65
2018-12-14T04:19:37.167Z,86.83
2018-12-14T04:20:37.218Z,86.83
2018-12-14T04:21:37.270Z,86.83
2018-12-14T04:22:37.354Z,86.46
2018-12-14T04:23:37.375Z,86.55
2018-12-14T04:24:37.430Z,86.83
2018-12-14T04:25:37.482Z,86.83
2018-12-14T04:26:37.534Z,86.36
2018-12-14T04:27:37.590Z,86.46
2018-12-14T04:28:37.641Z,86.36
2018-12-14T04:29:37.693Z,86.83
2018-12-14T04:30:37.750Z,87.50
2018-12-14T04:31:38.406Z,87.21
2018-12-14T04:32:37.852Z,87.21
2018-12-14T04:33:37.956Z,87.40
2018-12-14T04:34:37.959Z,86.83
2018-12-14T04:35:38.013Z,87.02
2018-12-14T04:36:38.066Z,86.65
2018-12-14T04:37:38.116Z,87.02
2018-12-14T04:38:38.183Z,87.02
2018-12-14T04:39:38.227Z,87.21
2018-12-14T04:40:38.278Z,85.80
2018-12-14T04:41:38.331Z,85.61
2018-12-14T04:42:38.384Z,85.04
2018-12-14T04:43:38.437Z,85.51
2018-12-14T04:44:38.490Z,85.42
2018-12-14T04:45:38.542Z,85.51
2018-12-14T04:46:38.595Z,85.23
2018-12-14T04:47:38.648Z,85.61
2018-12-14T04:48:38.702Z,85.80
2018-12-14T04:49:38.752Z,85.61
2018-12-14T04:50:38.806Z,85.51
2018-12-14T04:51:38.861Z,85.70
2018-12-14T04:52:38.917Z,85.80
2018-12-14T04:53:38.966Z,86.55
2018-12-14T04:54:39.019Z,85.70
2018-12-14T04:55:39.072Z,85.89
2018-12-14T04:56:39.129Z,85.61
2018-12-14T04:57:39.185Z,85.51
2018-12-14T04:58:39.231Z,84.94
2018-12-14T04:59:39.288Z,84.47
2018-12-14T05:00:39.343Z,84.66
2018-12-14T05:01:39.389Z,84.66
2018-12-14T05:02:39.443Z,84.09
2018-12-14T05:03:39.495Z,84.66
2018-12-14T05:04:39.551Z,84.75
2018-12-14T05:05:39.601Z,84.75
2018-12-14T05:06:39.657Z,84.47
2018-12-14T05:07:39.708Z,84.00
2018-12-14T05:08:39.760Z,84.75
2018-12-14T05:09:39.811Z,84.75
2018-12-14T05:10:40.493Z,84.47
2018-12-14T05:11:40.735Z,84.66
2018-12-14T05:12:39.972Z,85.32
2018-12-14T05:13:40.051Z,85.51
2018-12-14T05:14:40.079Z,85.70
2018-12-14T05:15:40.524Z,85.61
2018-12-14T05:16:40.184Z,86.27
2018-12-14T05:17:40.235Z,86.18
2018-12-14T05:18:40.290Z,86.18
2018-12-14T05:19:40.343Z,86.46
2018-12-14T05:20:40.396Z,86.36
2018-12-14T05:21:40.448Z,85.70
2018-12-14T05:22:40.501Z,86.08
2018-12-14T05:23:40.560Z,85.70
2018-12-14T05:24:40.609Z,85.70
2018-12-14T05:25:40.662Z,85.89
2018-12-14T05:26:40.715Z,85.80
2018-12-14T05:27:40.769Z,85.61
2018-12-14T05:28:40.821Z,85.42
2018-12-14T05:29:40.873Z,85.32
2018-12-14T05:30:40.929Z,85.61
2018-12-14T05:31:40.980Z,84.94
2018-12-14T05:32:41.033Z,84.94
2018-12-14T05:33:41.086Z,84.66
2018-12-14T05:34:41.138Z,84.75
2018-12-14T05:35:41.196Z,85.70
2018-12-14T05:36:41.245Z,85.51
2018-12-14T05:37:41.297Z,84.66
2018-12-14T05:38:41.349Z,84.75
2018-12-14T05:39:41.935Z,84.75
2018-12-14T05:40:41.456Z,84.85
2018-12-14T05:41:41.511Z,84.94
2018-12-14T05:42:41.562Z,85.42
2018-12-14T05:43:41.616Z,85.23
2018-12-14T05:44:41.669Z,84.75
2018-12-14T05:45:41.721Z,84.75
2018-12-14T05:46:41.775Z,85.04
2018-12-14T05:47:41.827Z,84.75
2018-12-14T05:48:41.885Z,84.56
2018-12-14T05:49:41.939Z,84.75
2018-12-14T05:50:41.986Z,84.52
2018-12-14T05:51:45.714Z,84.66
2018-12-14T05:52:42.093Z,84.47
2018-12-14T05:53:42.144Z,84.38
2018-12-14T05:54:42.197Z,84.00
2018-12-14T05:55:42.251Z,84.56
2018-12-14T05:56:42.305Z,84.75
2018-12-14T05:57:42.356Z,84.05
2018-12-14T05:58:42.420Z,84.56
2018-12-14T05:59:42.463Z,83.90
2018-12-14T06:00:42.516Z,84.28
2018-12-14T06:01:42.567Z,84.47
2018-12-14T06:02:42.623Z,83.90
2018-12-14T06:03:43.049Z,83.90
2018-12-14T06:04:43.097Z,84.00
2018-12-14T06:05:42.779Z,84.19
2018-12-14T06:06:42.838Z,84.28
2018-12-14T06:07:42.885Z,84.09
2018-12-14T06:08:42.940Z,83.90
2018-12-14T06:09:42.992Z,84.09
2018-12-14T06:10:43.044Z,84.09
2018-12-14T06:11:43.097Z,84.00
2018-12-14T06:12:43.151Z,84.66
2018-12-14T06:13:43.203Z,84.09
2018-12-14T06:14:43.256Z,84.66
2018-12-14T06:15:43.309Z,84.75
2018-12-14T06:16:43.361Z,84.56
2018-12-14T06:17:43.416Z,84.94
2018-12-14T06:18:43.468Z,84.38
2018-12-14T06:19:43.523Z,84.00
2018-12-14T06:20:43.573Z,84.38
2018-12-14T06:21:43.628Z,84.09
2018-12-14T06:22:43.679Z,84.09
2018-12-14T06:23:43.739Z,84.28
2018-12-14T06:24:43.787Z,84.00
2018-12-14T06:25:43.839Z,83.81
2018-12-14T06:26:43.893Z,84.38
2018-12-14T06:27:43.946Z,84.38
2018-12-14T06:28:44.001Z,84.85
2018-12-14T06:29:44.051Z,84.66
2018-12-14T06:30:44.109Z,84.75
2018-12-14T06:31:44.160Z,84.66
2018-12-14T06:32:44.211Z,84.75
2018-12-14T06:33:44.265Z,84.66
2018-12-14T06:34:44.317Z,84.56
2018-12-14T06:35:44.371Z,84.56
2018-12-14T06:36:44.424Z,84.66
2018-12-14T06:37:44.476Z,85.04
2018-12-14T06:38:44.559Z,85.04
2018-12-14T06:39:44.599Z,84.56
2018-12-14T06:40:44.639Z,84.94
2018-12-14T06:41:44.712Z,84.66
2018-12-14T06:42:44.749Z,84.94
2018-12-14T06:43:44.800Z,84.56
2018-12-14T06:44:44.852Z,85.70
2018-12-14T06:45:44.938Z,85.61
2018-12-14T06:46:44.957Z,85.32
2018-12-14T06:47:45.708Z,84.94
2018-12-14T06:48:45.697Z,84.85
2018-12-14T06:49:45.115Z,85.13
2018-12-14T06:50:45.168Z,84.94
2018-12-14T06:51:45.223Z,84.75
2018-12-14T06:52:45.278Z,84.94
2018-12-14T06:53:45.330Z,84.75
2018-12-14T06:54:45.380Z,84.47
2018-12-14T06:55:45.476Z,84.66
2018-12-14T06:56:45.489Z,85.61
2018-12-14T06:57:45.540Z,85.04
2018-12-14T06:58:46.027Z,84.66
2018-12-14T06:59:45.646Z,85.42
2018-12-14T07:00:45.700Z,85.04
2018-12-14T07:01:45.760Z,84.94
2018-12-14T07:02:45.822Z,84.85
2018-12-14T07:03:45.863Z,84.75
2018-12-14T07:04:45.913Z,85.04
2018-12-14T07:05:45.965Z,85.23
2018-12-14T07:06:46.018Z,85.42
2018-12-14T07:07:46.072Z,85.32
2018-12-14T07:08:46.124Z,85.47
2018-12-14T07:09:46.177Z,85.57
2018-12-14T07:10:46.231Z,85.85
2018-12-14T07:11:46.285Z,85.38
2018-12-14T07:12:46.353Z,86.08
2018-12-14T07:13:46.719Z,86.46
2018-12-14T07:14:46.443Z,86.08
2018-12-14T07:15:46.496Z,86.55
2018-12-14T07:16:46.552Z,86.27
2018-12-14T07:17:46.602Z,85.70
2018-12-14T07:18:46.655Z,85.61
2018-12-14T07:19:46.711Z,85.75
2018-12-14T07:20:46.760Z,86.22
2018-12-14T07:21:46.813Z,86.46
2018-12-14T07:22:46.867Z,86.55
2018-12-14T07:23:46.922Z,86.65
2018-12-14T07:24:46.973Z,86.65
2018-12-14T07:25:47.026Z,85.99
2018-12-14T07:26:47.118Z,86.36
2018-12-14T07:27:47.133Z,85.99
2018-12-14T07:28:47.186Z,86.79
2018-12-14T07:29:47.237Z,85.80
2018-12-14T07:30:47.291Z,86.18
2018-12-14T07:31:47.344Z,85.85
2018-12-14T07:32:47.398Z,85.94
2018-12-14T07:33:48.051Z,85.70
2018-12-14T07:34:47.504Z,85.89
2018-12-14T07:35:47.557Z,85.70
2018-12-14T07:36:47.919Z,85.13
2018-12-14T07:37:48.043Z,85.13
2018-12-14T07:38:48.233Z,85.38
2018-12-14T07:39:47.767Z,85.75
2018-12-14T07:40:47.826Z,85.99
2018-12-14T07:41:47.873Z,85.75
2018-12-14T07:42:47.926Z,85.47
2018-12-14T07:43:47.988Z,85.47
2018-12-14T07:44:48.435Z,85.42
2018-12-14T07:45:48.086Z,85.89
2018-12-14T07:46:48.138Z,85.80
2018-12-14T07:47:48.191Z,85.66
2018-12-14T07:48:48.266Z,85.85
2018-12-14T07:49:48.296Z,85.75
2018-12-14T07:50:48.350Z,85.80
2018-12-14T07:51:48.404Z,85.61
2018-12-14T07:52:48.457Z,86.46
2018-12-14T07:53:48.508Z,86.36
2018-12-14T07:54:48.564Z,86.46
2018-12-14T07:55:48.615Z,86.46
2018-12-14T07:56:48.668Z,86.46
2018-12-14T07:57:48.720Z,85.89
2018-12-14T07:58:48.773Z,85.89
2018-12-14T07:59:48.866Z,85.80
2018-12-14T08:00:48.881Z,85.61
2018-12-14T08:01:48.931Z,85.80
2018-12-14T08:02:48.985Z,85.89
2018-12-14T08:03:49.040Z,85.61
2018-12-14T08:04:49.092Z,86.46
2018-12-14T08:05:49.148Z,85.61
2018-12-14T08:06:49.200Z,85.80
2018-12-14T08:07:49.268Z,85.99
2018-12-14T08:08:49.305Z,85.80
2018-12-14T08:09:49.355Z,86.27
2018-12-14T08:10:49.409Z,86.08
2018-12-14T08:11:49.462Z,86.27
2018-12-14T08:12:49.516Z,86.27
2018-12-14T08:13:49.568Z,86.18
2018-12-14T08:14:49.626Z,86.65
2018-12-14T08:15:49.675Z,85.42
2018-12-14T08:16:49.728Z,85.99
2018-12-14T08:17:49.782Z,85.80
2018-12-14T08:18:49.835Z,86.08
2018-12-14T08:19:49.888Z,85.80
2018-12-14T08:20:49.968Z,85.61
2018-12-14T08:21:49.998Z,86.36
2018-12-14T08:22:50.048Z,85.89
2018-12-14T08:23:50.101Z,85.80
2018-12-14T08:24:50.154Z,86.27
2018-12-14T08:25:50.206Z,86.18
2018-12-14T08:26:50.259Z,86.46
2018-12-14T08:27:50.312Z,86.60
2018-12-14T08:28:50.369Z,85.61
2018-12-14T08:29:51.840Z,85.61
2018-12-14T08:30:50.471Z,86.22
2018-12-14T08:31:50.525Z,85.70
2018-12-14T08:32:50.577Z,85.89
2018-12-14T08:33:50.632Z,85.80
2018-12-14T08:34:51.363Z,85.89
2018-12-14T08:35:50.737Z,85.51
2018-12-14T08:36:50.791Z,86.83
2018-12-14T08:37:50.842Z,86.36
2018-12-14T08:38:50.896Z,86.27
2018-12-14T08:39:50.948Z,86.18
2018-12-14T08:40:51.004Z,86.27
2018-12-14T08:41:51.055Z,85.70
2018-12-14T08:42:51.108Z,85.89
2018-12-14T08:43:51.162Z,85.61
2018-12-14T08:44:51.214Z,85.89
2018-12-14T08:45:51.267Z,85.89
2018-12-14T08:46:51.320Z,85.80
2018-12-14T08:47:51.373Z,85.42
2018-12-14T08:48:51.432Z,86.08
2018-12-14T08:49:51.479Z,85.89
2018-12-14T08:50:51.533Z,85.51
2018-12-14T08:51:51.586Z,85.61
2018-12-14T08:52:51.653Z,85.94
2018-12-14T08:53:51.690Z,86.41
2018-12-14T08:54:51.746Z,86.89
2018-12-14T08:55:51.797Z,86.46
2018-12-14T08:56:51.906Z,86.27
2018-12-14T08:57:51.905Z,85.42
2018-12-14T08:58:51.958Z,86.83
2018-12-14T08:59:52.011Z,85.61
2018-12-14T09:00:52.064Z,86.46
2018-12-14T09:01:52.117Z,86.46
2018-12-14T09:02:52.172Z,86.27
2018-12-14T09:03:52.222Z,86.36
2018-12-14T09:04:52.275Z,86.83
2018-12-14T09:05:52.330Z,86.83
2018-12-14T09:06:52.384Z,86.36
2018-12-14T09:07:52.437Z,86.65
2018-12-14T09:08:52.489Z,86.27
2018-12-14T09:09:52.543Z,86.27
2018-12-14T09:10:52.596Z,86.36
2018-12-14T09:11:52.650Z,86.83
2018-12-14T09:12:52.702Z,86.32
2018-12-14T09:13:52.756Z,86.55
2018-12-14T09:14:52.810Z,86.55
2018-12-14T09:15:52.863Z,85.99
2018-12-14T09:16:52.917Z,85.80
2018-12-14T09:17:52.968Z,86.65
2018-12-14T09:18:53.022Z,86.18
2018-12-14T09:19:53.076Z,86.27
2018-12-14T09:20:53.138Z,85.89
2018-12-14T09:21:53.183Z,85.89
2018-12-14T09:22:53.239Z,86.18
2018-12-14T09:23:53.294Z,85.80
2018-12-14T09:24:53.359Z,86.18
2018-12-14T09:25:53.394Z,85.51
2018-12-14T09:26:53.448Z,86.27
2018-12-14T09:27:53.604Z,86.27
2018-12-14T09:28:53.556Z,86.83
2018-12-14T09:29:53.607Z,87.31
2018-12-14T09:30:53.662Z,87.12
2018-12-14T09:31:53.716Z,87.40
2018-12-14T09:32:53.773Z,87.31
2018-12-14T09:33:53.821Z,87.50
2018-12-14T09:34:53.876Z,87.31
2018-12-14T09:35:53.930Z,87.21
2018-12-14T09:36:53.986Z,87.12
2018-12-14T09:37:54.035Z,87.59
2018-12-14T09:38:54.098Z,87.69
2018-12-14T09:39:54.142Z,87.59
2018-12-14T09:40:54.196Z,88.26
2018-12-14T09:41:55.037Z,88.07
2018-12-14T09:42:54.859Z,87.69
2018-12-14T09:43:54.605Z,88.26
2018-12-14T09:44:54.408Z,88.35
2018-12-14T09:45:54.462Z,88.26
2018-12-14T09:46:54.516Z,88.73
2018-12-14T09:47:54.570Z,88.82
2018-12-14T09:48:54.622Z,88.92
2018-12-14T09:49:54.676Z,88.82
2018-12-14T09:50:54.729Z,89.20
2018-12-14T09:51:54.782Z,89.11
2018-12-14T09:52:54.837Z,89.58
2018-12-14T09:53:54.891Z,89.49
2018-12-14T09:54:54.944Z,89.39
2018-12-14T09:55:54.997Z,89.92
2018-12-14T09:56:55.052Z,89.77
2018-12-14T09:57:55.105Z,90.44
2018-12-14T09:58:55.158Z,90.34
2018-12-14T09:59:55.212Z,90.34
2018-12-14T10:00:55.265Z,90.34
2018-12-14T10:01:56.123Z,90.86
2018-12-14T10:02:55.371Z,90.91
2018-12-14T10:03:55.425Z,90.91
2018-12-14T10:04:55.479Z,91.19
2018-12-14T10:05:55.531Z,91.38
2018-12-14T10:06:55.584Z,91.57
2018-12-14T10:07:55.970Z,91.48
2018-12-14T10:08:55.692Z,91.72
2018-12-14T10:09:55.746Z,92.19
2018-12-14T10:10:55.798Z,91.81
2018-12-14T10:11:55.919Z,92.05
2018-12-14T10:12:55.917Z,92.57
2018-12-14T10:14:00.776Z,92.52
2018-12-14T10:14:56.013Z,92.52
2018-12-14T10:15:56.066Z,91.95
2018-12-14T10:16:56.124Z,92.43
2018-12-14T10:17:56.174Z,92.14
2018-12-14T10:18:56.227Z,92.33
2018-12-14T10:19:56.281Z,92.14
2018-12-14T10:20:56.333Z,91.76
2018-12-14T10:21:56.388Z,91.76
2018-12-14T10:22:56.439Z,91.48
2018-12-14T10:23:56.495Z,92.33
2018-12-14T10:24:56.554Z,92.71
2018-12-14T10:25:56.600Z,93.18
2018-12-14T10:26:56.656Z,93.08
2018-12-14T10:27:56.755Z,93.65
2018-12-14T10:28:56.764Z,94.13
2018-12-14T10:29:56.844Z,93.84
2018-12-14T10:30:56.872Z,94.51
2018-12-14T10:31:56.923Z,94.70
2018-12-14T10:32:56.978Z,94.65
2018-12-14T10:33:57.035Z,95.17
2018-12-14T10:34:57.085Z,95.45
2018-12-14T10:35:57.140Z,95.45
2018-12-14T10:36:57.193Z,95.26
2018-12-14T10:37:57.245Z,95.36
2018-12-14T10:38:57.299Z,95.64
2018-12-14T10:39:57.354Z,95.83
2018-12-14T10:40:57.408Z,95.64
2018-12-14T10:41:57.460Z,95.83
2018-12-14T10:42:57.517Z,95.74
2018-12-14T10:43:57.569Z,95.64
2018-12-14T10:44:57.627Z,95.74
2018-12-14T10:45:57.675Z,95.55
2018-12-14T10:46:57.730Z,96.31
2018-12-14T10:47:57.784Z,96.78
2018-12-14T10:48:57.840Z,96.59
2018-12-14T10:49:57.892Z,96.59
2018-12-14T10:50:57.944Z,96.69
2018-12-14T10:51:57.998Z,97.16
2018-12-14T10:52:58.054Z,97.35
2018-12-14T10:53:58.107Z,97.44
2018-12-14T10:54:58.160Z,97.16
2018-12-14T10:55:58.219Z,97.35
2018-12-14T10:56:58.274Z,97.30
2018-12-14T10:57:58.322Z,97.49
2018-12-14T10:58:58.377Z,98.11
2018-12-14T10:59:58.434Z,97.35
2018-12-14T11:00:58.484Z,97.25
2018-12-14T11:01:58.536Z,97.25
2018-12-14T11:02:58.589Z,97.16
2018-12-14T11:03:58.645Z,96.78
2018-12-14T11:04:58.699Z,97.44
2018-12-14T11:05:58.751Z,96.97
2018-12-14T11:06:58.807Z,97.35
2018-12-14T11:07:58.860Z,97.25
2018-12-14T11:08:58.914Z,96.40
2018-12-14T11:09:58.970Z,96.31
2018-12-14T11:10:59.021Z,96.12
2018-12-14T11:11:59.075Z,96.21
2018-12-14T11:12:59.130Z,96.31
2018-12-14T11:13:59.181Z,95.93
2018-12-14T11:14:59.253Z,95.55
2018-12-14T11:15:59.291Z,96.21
2018-12-14T11:16:59.344Z,96.40
2018-12-14T11:17:59.397Z,96.12
2018-12-14T11:18:59.451Z,96.31
2018-12-14T11:19:59.505Z,96.50
2018-12-14T11:20:59.998Z,96.78
2018-12-14T11:21:59.623Z,96.12
2018-12-14T11:22:59.666Z,95.93
2018-12-14T11:23:59.720Z,96.12
2018-12-14T11:24:59.773Z,96.31
2018-12-14T11:25:59.827Z,96.12
2018-12-14T11:26:59.880Z,96.78
2018-12-14T11:27:59.935Z,96.40
2018-12-14T11:28:59.989Z,96.97
2018-12-14T11:30:00.042Z,96.12
2018-12-14T11:31:00.097Z,96.40
2018-12-14T11:32:00.149Z,96.78
2018-12-14T11:33:00.203Z,96.02
2018-12-14T11:34:00.256Z,96.50
2018-12-14T11:35:00.309Z,96.21
2018-12-14T11:36:00.364Z,95.45
2018-12-14T11:37:00.418Z,95.59
2018-12-14T11:38:00.471Z,95.40
2018-12-14T11:39:00.524Z,95.97
2018-12-14T11:40:00.579Z,95.69
2018-12-14T11:41:00.633Z,95.69
2018-12-14T11:42:00.686Z,95.59
2018-12-14T11:43:00.746Z,95.93
2018-12-14T11:44:00.793Z,95.64
2018-12-14T11:45:00.846Z,95.03
2018-12-14T11:46:00.899Z,95.07
2018-12-14T11:47:00.952Z,95.03
2018-12-14T11:48:01.006Z,95.83
2018-12-14T11:49:01.059Z,95.78
2018-12-14T11:50:01.155Z,95.97
2018-12-14T11:51:01.166Z,95.45
2018-12-14T11:52:01.219Z,95.40
2018-12-14T11:53:01.275Z,94.98
2018-12-14T11:54:01.327Z,94.70
2018-12-14T11:55:01.386Z,94.60
2018-12-14T11:56:01.435Z,94.56
2018-12-14T11:57:01.487Z,94.65
2018-12-14T11:58:01.540Z,94.37
2018-12-14T11:59:01.593Z,94.23
2018-12-14T12:00:01.652Z,94.04
2018-12-14T12:01:01.700Z,94.42
2018-12-14T12:02:01.754Z,94.13
2018-12-14T12:03:01.806Z,94.70
2018-12-14T12:04:01.864Z,94.13
2018-12-14T12:05:01.917Z,94.42
2018-12-14T12:06:02.828Z,94.51
2018-12-14T12:07:02.794Z,94.23
2018-12-14T12:08:02.413Z,94.42
2018-12-14T12:09:02.128Z,94.13
2018-12-14T12:10:02.180Z,94.70
2018-12-14T12:11:02.232Z,94.79
2018-12-14T12:12:02.292Z,95.17
2018-12-14T12:13:02.341Z,94.98
2018-12-14T12:14:02.393Z,95.36
2018-12-14T12:15:02.448Z,94.32
2018-12-14T12:16:02.503Z,94.32
2018-12-14T12:17:02.554Z,94.98
2018-12-14T12:18:02.607Z,94.13
2018-12-14T12:19:02.661Z,94.13
2018-12-14T12:20:02.716Z,94.13
2018-12-14T12:21:21.974Z,94.32
2018-12-14T12:22:02.822Z,94.89
2018-12-14T12:23:02.875Z,94.98
2018-12-14T12:24:02.931Z,94.79
2018-12-14T12:25:02.982Z,94.42
2018-12-14T12:26:03.036Z,94.42
2018-12-14T12:27:03.088Z,93.94
2018-12-14T12:28:03.141Z,94.13
2018-12-14T12:29:03.195Z,94.51
2018-12-14T12:30:03.250Z,94.13
2018-12-14T12:31:03.814Z,93.94
2018-12-14T12:32:03.355Z,94.51
2018-12-14T12:33:03.410Z,94.23
2018-12-14T12:34:03.462Z,94.51
2018-12-14T12:35:03.516Z,93.84
2018-12-14T12:36:03.568Z,93.94
2018-12-14T12:37:03.624Z,93.65
2018-12-14T12:38:03.676Z,93.65
2018-12-14T12:39:03.754Z,93.94
2018-12-14T12:40:03.784Z,93.65
2018-12-14T12:41:03.837Z,93.94
2018-12-14T12:42:03.890Z,93.65
2018-12-14T12:43:03.966Z,93.65
2018-12-14T12:44:04.000Z,93.84
2018-12-14T12:45:04.050Z,93.75
2018-12-14T12:46:04.104Z,93.27
2018-12-14T12:47:04.160Z,93.65
2018-12-14T12:48:04.211Z,92.99
2018-12-14T12:49:04.264Z,92.61
2018-12-14T12:50:04.318Z,91.86
2018-12-14T12:51:04.374Z,92.71
2018-12-14T12:52:04.427Z,92.43
2018-12-14T12:53:04.477Z,92.90